ELNO2: N. Canadian River, El Reno, OK

Data processed at Fri May 24 2019 23:50


All information presented herein is the property of the government of the United States of America and may be revised or deleted at any time without prior notice.
Dissemination of this information without the expressed written consent of the Public Affairs Office, Tulsa District U.S. Army Corps of Engineers is strictly prohibited.
These data are gathered electronically and, as presented, have not undergone any form of quality control. These data are not guaranteed to be valid or correct.
Go to home page.
Go to station list.
Go to home page.

Upstream stations:

Downstream station:
Previous Day
Next Day
Current Day
    
SHEF ID:       ELNO2     North Canadian River near El Ren
STATION TYPE:  
Regulating: Stage =    10.00, Flow =     2559

               PRECIP     STAGE  STAGE(2)  RIV-FLOW  WTR-TEMP   CONDUCT  BAT-LOAD
                   in        ft        ft       cfs         F   umho/cm      volt
              Ccp-Rev   Ccp-Rev   Ccp-Rev   Ccp-Rev   Ccp-Rev   Ccp-Rev   Ccp-Rev
(US/Central)
05/24 00:00      0.00     11.32      ----      3363     70.75       399     12.65
05/24 01:00      0.00     11.29      ----      3343     70.86       402     12.65
05/24 02:00      0.00     11.21      ----      3289     70.97       405     12.65
05/24 03:00      0.00     11.18      ----      3269     71.08       408     12.65
05/24 04:00      0.00     11.14      ----      3311     71.15       410     12.65
05/24 05:00      0.00     11.08      ----      3271     71.22       416     12.65
05/24 06:00      0.00     11.00      ----      3216     71.31       422     12.65
05/24 07:00      0.00     10.95      ----      3181     71.38       426     12.57
05/24 08:00      0.00     10.91      ----      3154     71.47       429     12.65
05/24 09:00      0.00     10.89      ----      3140     71.62       436     12.97
05/24 10:00      0.00     10.77      ----      3058     71.85       440     13.53
05/24 11:00      0.00     10.72      ----      3025     72.10       446     13.68
05/24 12:00      0.00     10.69      ----      3005     72.57       452     13.76
05/24 13:00      0.00     10.66      ----      2984     72.82       456     13.76
05/24 14:00      0.00     10.59      ----      2938     73.00       461     13.68
05/24 15:00      0.00     10.58      ----      2931     73.11       466     13.68
05/24 16:00      0.00     10.53      ----      2898     73.44       472     13.68
05/24 17:00      0.00     10.49      ----      2872     73.56       477     13.60
05/24 18:00      0.00     10.42      ----      2826     73.67       484     13.60
05/24 19:00      0.00     10.42      ----      2826     73.62       488     13.05
05/24 20:00      0.00     10.36      ----      2787     73.58       491     12.73
05/24 21:00      0.19     10.37      ----      2794     73.44       495     12.73
05/24 22:00      0.40     10.40      ----      2813     73.27       498     12.65
05/24 23:00      0.06     10.46      ----      2852     73.17       503     12.65